PWSweather.com
Personal Weather Stations
Station Observations
133525
French Quarters West Seneca , West Seneca, NY 14224

French Quarters West Seneca West Seneca, NY 14224

Lat: 42.850058, Lon: -78.799754

Elevation: 603

Station Type: Davis Vantage Vue pro2

http://westsenecaweather.com/

High Low Average
Temperature 73.1°F22.8°F 56.9°F13.8°F 65.4°F18.6°F
Dew Point 60.0°F15.6°F 48.9°F9.4°F 53.1°F11.7°F
Winds 8.1 mph SW13.0 mph SW Calm Calm 2.6 mph 4.2 mph
Wind Gusts 15.0 mph24.1 mph -- 5.1 mph8.2 mph
Humidity 83% 45% 65%
Pressure 30.10 in1019.30 in 29.99 in1015.60 in -
Precipitation 0.00 in0.00 in - -
Hour Temp Dew Point Humidity Winds Wind Gusts Pressure Precip Precip Rate Daily Precip Total
12:00 AM 62.6°F17.0°C 53.1°F11.7°C 71% 1.2 mph WSW1.9 kmh WSW 2.3 mph3.7 kmh 30.02 in1016.6 mb - 0.00 in0.0 mm 0.00 in0.0 mm
12:10 AM 62.9°F17.2°C 53.4°F11.9°C 71% 2.3 mph SSW3.7 kmh SSW 3.5 mph5.6 kmh 30.02 in1016.6 mb - 0.00 in0.0 mm 0.00 in0.0 mm
12:20 AM 63.0°F17.2°C 53.9°F12.2°C 72% 2.3 mph S3.7 kmh S 3.5 mph5.6 kmh 30.02 in1016.6 mb - 0.00 in0.0 mm 0.00 in0.0 mm
12:30 AM 63.4°F17.4°C 54.2°F12.3°C 72% 3.5 mph WNW5.6 kmh WNW 4.6 mph7.4 kmh 30.02 in1016.6 mb - 0.00 in0.0 mm 0.00 in0.0 mm
12:40 AM 63.7°F17.6°C 54.1°F12.3°C 71% 2.3 mph SW3.7 kmh SW 3.5 mph5.6 kmh 30.02 in1016.6 mb - 0.00 in0.0 mm 0.00 in0.0 mm
12:50 AM 63.9°F17.7°C 54.0°F12.2°C 70% 2.3 mph SW3.7 kmh SW 5.8 mph9.3 kmh 30.02 in1016.6 mb - 0.00 in0.0 mm 0.00 in0.0 mm
01:00 AM 64.1°F17.8°C 54.1°F12.3°C 70% 3.5 mph W5.6 kmh W 4.6 mph7.4 kmh 30.02 in1016.6 mb - 0.00 in0.0 mm 0.00 in0.0 mm
01:10 AM 64.2°F17.9°C 54.6°F12.6°C 71% 3.5 mph SW5.6 kmh SW 5.8 mph9.3 kmh 30.02 in1016.6 mb - 0.00 in0.0 mm 0.00 in0.0 mm
01:20 AM 64.0°F17.8°C 54.8°F12.7°C 72% 3.5 mph WSW5.6 kmh WSW 6.9 mph11.1 kmh 30.02 in1016.6 mb - 0.00 in0.0 mm 0.00 in0.0 mm
01:30 AM 63.6°F17.6°C 54.0°F12.2°C 71% 1.2 mph SW1.9 kmh SW 2.3 mph3.7 kmh 30.02 in1016.6 mb - 0.00 in0.0 mm 0.00 in0.0 mm
01:40 AM 63.4°F17.4°C 54.2°F12.3°C 72% 1.2 mph S1.9 kmh S 3.5 mph5.6 kmh 30.02 in1016.6 mb - 0.00 in0.0 mm 0.00 in0.0 mm
01:50 AM 62.6°F17.0°C 54.6°F12.6°C 75% 2.3 mph SSE3.7 kmh SSE 3.5 mph5.6 kmh 30.02 in1016.6 mb - 0.00 in0.0 mm 0.00 in0.0 mm
02:00 AM 61.1°F16.2°C 54.6°F12.6°C 79% 1.2 mph S1.9 kmh S 2.3 mph3.7 kmh 30.02 in1016.6 mb - 0.00 in0.0 mm 0.00 in0.0 mm
02:10 AM 60.4°F15.8°C 54.2°F12.3°C 80% 2.3 mph S3.7 kmh S 3.5 mph5.6 kmh 30.02 in1016.6 mb - 0.00 in0.0 mm 0.00 in0.0 mm
02:20 AM 59.9°F15.5°C 54.1°F12.3°C 81% 1.2 mph S1.9 kmh S 3.5 mph5.6 kmh 30.02 in1016.6 mb - 0.00 in0.0 mm 0.00 in0.0 mm
02:30 AM 59.3°F15.2°C 53.5°F11.9°C 81% 2.3 mph S3.7 kmh S 3.5 mph5.6 kmh 30.02 in1016.6 mb - 0.00 in0.0 mm 0.00 in0.0 mm
02:40 AM 58.9°F14.9°C 53.4°F11.9°C 82% 2.3 mph SSE3.7 kmh SSE 3.5 mph5.6 kmh 30.02 in1016.6 mb - 0.00 in0.0 mm 0.00 in0.0 mm
02:50 AM 58.6°F14.8°C 53.1°F11.7°C 82% 1.2 mph S1.9 kmh S 2.3 mph3.7 kmh 30.02 in1016.6 mb - 0.00 in0.0 mm 0.00 in0.0 mm
03:00 AM 58.3°F14.6°C 53.2°F11.8°C 83% 2.3 mph S3.7 kmh S 2.3 mph3.7 kmh 30.02 in1016.6 mb - 0.00 in0.0 mm 0.00 in0.0 mm
03:10 AM 58.0°F14.4°C 52.9°F11.6°C 83% 1.2 mph S1.9 kmh S 2.3 mph3.7 kmh 30.02 in1016.6 mb - 0.00 in0.0 mm 0.00 in0.0 mm
03:20 AM 57.7°F14.3°C 52.2°F11.2°C 82% 1.2 mph S1.9 kmh S 3.5 mph5.6 kmh 30.02 in1016.6 mb - 0.00 in0.0 mm 0.00 in0.0 mm
03:30 AM 57.4°F14.1°C 52.3°F11.3°C 83% Calm Calm 2.3 mph3.7 kmh 30.02 in1016.6 mb - 0.00 in0.0 mm 0.00 in0.0 mm
03:40 AM 57.1°F13.9°C 52.0°F11.1°C 83% Calm Calm 1.2 mph1.9 kmh 30.02 in1016.6 mb - 0.00 in0.0 mm 0.00 in0.0 mm
03:50 AM 57.0°F13.9°C 51.9°F11.1°C 83% 2.3 mph S3.7 kmh S 2.3 mph3.7 kmh 30.02 in1016.6 mb - 0.00 in0.0 mm 0.00 in0.0 mm
04:00 AM 57.0°F13.9°C 51.6°F10.9°C 82% Calm Calm 2.3 mph3.7 kmh 30.02 in1016.6 mb - 0.00 in0.0 mm 0.00 in0.0 mm
04:10 AM 57.0°F13.9°C 51.2°F10.7°C 81% Calm Calm 1.2 mph1.9 kmh 30.02 in1016.6 mb - 0.00 in0.0 mm 0.00 in0.0 mm
04:20 AM 56.9°F13.8°C 51.2°F10.7°C 81% Calm Calm 2.3 mph3.7 kmh 30.03 in1016.9 mb - 0.00 in0.0 mm 0.00 in0.0 mm
04:30 AM 56.9°F13.8°C 50.8°F10.4°C 80% 2.3 mph S3.7 kmh S 2.3 mph3.7 kmh 30.03 in1016.9 mb - 0.00 in0.0 mm 0.00 in0.0 mm
04:40 AM 57.2°F14.0°C 51.1°F10.6°C 80% 1.2 mph S1.9 kmh S 2.3 mph3.7 kmh 30.03 in1016.9 mb - 0.00 in0.0 mm 0.00 in0.0 mm
04:50 AM 57.4°F14.1°C 50.9°F10.5°C 79% 1.2 mph S1.9 kmh S 2.3 mph3.7 kmh 30.03 in1016.9 mb - 0.00 in0.0 mm 0.00 in0.0 mm
05:00 AM 57.5°F14.2°C 51.0°F10.6°C 79% 2.3 mph SSE3.7 kmh SSE 3.5 mph5.6 kmh 30.03 in1016.9 mb - 0.00 in0.0 mm 0.00 in0.0 mm
05:10 AM 57.6°F14.2°C 50.8°F10.4°C 78% 2.3 mph S3.7 kmh S 3.5 mph5.6 kmh 30.03 in1016.9 mb - 0.00 in0.0 mm 0.00 in0.0 mm
05:20 AM 57.7°F14.3°C 50.2°F10.1°C 76% 2.3 mph S3.7 kmh S 4.6 mph7.4 kmh 30.04 in1017.3 mb - 0.00 in0.0 mm 0.00 in0.0 mm
05:30 AM 57.8°F14.3°C 50.3°F10.2°C 76% 2.3 mph S3.7 kmh S 3.5 mph5.6 kmh 30.04 in1017.3 mb - 0.00 in0.0 mm 0.00 in0.0 mm
05:40 AM 58.0°F14.4°C 49.7°F9.8°C 74% 2.3 mph SSE3.7 kmh SSE 3.5 mph5.6 kmh 30.04 in1017.3 mb - 0.00 in0.0 mm 0.00 in0.0 mm
05:50 AM 58.0°F14.4°C 49.8°F9.9°C 74% 1.2 mph S1.9 kmh S 3.5 mph5.6 kmh 30.04 in1017.3 mb - 0.00 in0.0 mm 0.00 in0.0 mm
06:00 AM 57.9°F14.4°C 48.9°F9.4°C 72% 2.3 mph S3.7 kmh S 3.5 mph5.6 kmh 30.04 in1017.3 mb - 0.00 in0.0 mm 0.00 in0.0 mm
06:10 AM 58.0°F14.4°C 49.0°F9.4°C 72% 1.2 mph S1.9 kmh S 3.5 mph5.6 kmh 30.05 in1017.6 mb - 0.00 in0.0 mm 0.00 in0.0 mm
06:20 AM 57.9°F14.4°C 48.9°F9.4°C 72% 1.2 mph S1.9 kmh S 3.5 mph5.6 kmh 30.05 in1017.6 mb - 0.00 in0.0 mm 0.00 in0.0 mm
06:30 AM 57.9°F14.4°C 48.9°F9.4°C 72% 3.5 mph S5.6 kmh S 5.8 mph9.3 kmh 30.05 in1017.6 mb - 0.00 in0.0 mm 0.00 in0.0 mm
06:40 AM 58.0°F14.4°C 49.0°F9.4°C 72% 2.3 mph SSE3.7 kmh SSE 3.5 mph5.6 kmh 30.05 in1017.6 mb - 0.00 in0.0 mm 0.00 in0.0 mm
06:50 AM 58.3°F14.6°C 48.9°F9.4°C 71% 2.3 mph S3.7 kmh S 3.5 mph5.6 kmh 30.05 in1017.6 mb - 0.00 in0.0 mm 0.00 in0.0 mm
07:00 AM 58.5°F14.7°C 49.1°F9.5°C 71% 2.3 mph S3.7 kmh S 3.5 mph5.6 kmh 30.05 in1017.6 mb - 0.00 in0.0 mm 0.00 in0.0 mm
07:10 AM 58.9°F14.9°C 49.5°F9.7°C 71% 2.3 mph S3.7 kmh S 3.5 mph5.6 kmh 30.06 in1017.9 mb - 0.00 in0.0 mm 0.00 in0.0 mm
07:20 AM 59.7°F15.4°C 49.9°F9.9°C 70% 3.5 mph S5.6 kmh S 6.9 mph11.1 kmh 30.06 in1017.9 mb - 0.00 in0.0 mm 0.00 in0.0 mm
07:30 AM 60.1°F15.6°C 50.3°F10.2°C 70% 2.3 mph S3.7 kmh S 3.5 mph5.6 kmh 30.06 in1017.9 mb - 0.00 in0.0 mm 0.00 in0.0 mm
07:40 AM 60.5°F15.8°C 51.0°F10.6°C 71% 2.3 mph S3.7 kmh S 3.5 mph5.6 kmh 30.06 in1017.9 mb - 0.00 in0.0 mm 0.00 in0.0 mm
07:50 AM 61.2°F16.2°C 51.0°F10.6°C 69% 3.5 mph S5.6 kmh S 6.9 mph11.1 kmh 30.06 in1017.9 mb - 0.00 in0.0 mm 0.00 in0.0 mm
08:00 AM 61.8°F16.6°C 51.5°F10.8°C 69% 3.5 mph S5.6 kmh S 4.6 mph7.4 kmh 30.06 in1017.9 mb - 0.00 in0.0 mm 0.00 in0.0 mm
08:10 AM 62.6°F17.0°C 52.6°F11.4°C 70% 2.3 mph SSE3.7 kmh SSE 3.5 mph5.6 kmh 30.05 in1017.6 mb - 0.00 in0.0 mm 0.00 in0.0 mm
08:20 AM 63.2°F17.3°C 52.9°F11.6°C 69% 1.2 mph S1.9 kmh S 3.5 mph5.6 kmh 30.05 in1017.6 mb - 0.00 in0.0 mm 0.00 in0.0 mm
08:30 AM 63.9°F17.7°C 53.5°F11.9°C 69% 4.6 mph S7.4 kmh S 6.9 mph11.1 kmh 30.06 in1017.9 mb - 0.00 in0.0 mm 0.00 in0.0 mm
08:40 AM 64.5°F18.1°C 54.1°F12.3°C 69% 3.5 mph SSW5.6 kmh SSW 4.6 mph7.4 kmh 30.06 in1017.9 mb - 0.00 in0.0 mm 0.00 in0.0 mm
08:50 AM 65.0°F18.3°C 55.0°F12.8°C 70% 2.3 mph S3.7 kmh S 3.5 mph5.6 kmh 30.07 in1018.3 mb - 0.00 in0.0 mm 0.00 in0.0 mm
09:00 AM 65.8°F18.8°C 56.2°F13.4°C 71% 2.3 mph SSE3.7 kmh SSE 4.6 mph7.4 kmh 30.07 in1018.3 mb - 0.00 in0.0 mm 0.00 in0.0 mm
09:10 AM 66.4°F19.1°C 56.3°F13.5°C 70% 3.5 mph S5.6 kmh S 5.8 mph9.3 kmh 30.08 in1018.6 mb - 0.00 in0.0 mm 0.00 in0.0 mm
09:20 AM 66.7°F19.3°C 57.4°F14.1°C 72% 3.5 mph SSW5.6 kmh SSW 4.6 mph7.4 kmh 30.08 in1018.6 mb - 0.00 in0.0 mm 0.00 in0.0 mm
09:30 AM 66.8°F19.3°C 57.9°F14.4°C 73% 3.5 mph S5.6 kmh S 5.8 mph9.3 kmh 30.08 in1018.6 mb - 0.00 in0.0 mm 0.00 in0.0 mm
09:40 AM 67.5°F19.7°C 58.9°F14.9°C 74% 2.3 mph S3.7 kmh S 9.2 mph14.8 kmh 30.08 in1018.6 mb - 0.00 in0.0 mm 0.00 in0.0 mm
09:50 AM 67.7°F19.8°C 59.1°F15.1°C 74% 2.3 mph S3.7 kmh S 4.6 mph7.4 kmh 30.08 in1018.6 mb - 0.00 in0.0 mm 0.00 in0.0 mm
10:00 AM 67.9°F19.9°C 59.6°F15.3°C 75% 4.6 mph SSW7.4 kmh SSW 10.4 mph16.7 kmh 30.08 in1018.6 mb - 0.00 in0.0 mm 0.00 in0.0 mm
10:10 AM 67.5°F19.7°C 59.3°F15.2°C 75% 5.8 mph W9.3 kmh W 13.8 mph22.2 kmh 30.08 in1018.6 mb - 0.00 in0.0 mm 0.00 in0.0 mm
10:20 AM 67.3°F19.6°C 59.8°F15.4°C 77% 6.9 mph WSW11.1 kmh WSW 11.5 mph18.5 kmh 30.08 in1018.6 mb - 0.00 in0.0 mm 0.00 in0.0 mm
10:30 AM 67.8°F19.9°C 60.0°F15.6°C 76% 2.3 mph WSW3.7 kmh WSW 3.5 mph5.6 kmh 30.08 in1018.6 mb - 0.00 in0.0 mm 0.00 in0.0 mm
10:40 AM 68.1°F20.1°C 59.9°F15.5°C 75% 4.6 mph SSW7.4 kmh SSW 8.1 mph13.0 kmh 30.09 in1019.0 mb - 0.00 in0.0 mm 0.00 in0.0 mm
10:50 AM 68.6°F20.3°C 58.8°F14.9°C 71% 3.5 mph WSW5.6 kmh WSW 6.9 mph11.1 kmh 30.09 in1019.0 mb - 0.00 in0.0 mm 0.00 in0.0 mm
11:00 AM 68.7°F20.4°C 58.9°F14.9°C 71% 4.6 mph SW7.4 kmh SW 4.6 mph7.4 kmh 30.09 in1019.0 mb - 0.00 in0.0 mm 0.00 in0.0 mm
11:10 AM 69.1°F20.6°C 58.1°F14.5°C 68% 3.5 mph SW5.6 kmh SW 11.5 mph18.5 kmh 30.09 in1019.0 mb - 0.00 in0.0 mm 0.00 in0.0 mm
11:20 AM 69.1°F20.6°C 58.9°F14.9°C 70% 4.6 mph WSW7.4 kmh WSW 11.5 mph18.5 kmh 30.09 in1019.0 mb - 0.00 in0.0 mm 0.00 in0.0 mm
11:30 AM 69.6°F20.9°C 58.1°F14.5°C 67% 2.3 mph S3.7 kmh S 6.9 mph11.1 kmh 30.09 in1019.0 mb - 0.00 in0.0 mm 0.00 in0.0 mm
11:40 AM 69.9°F21.1°C 56.7°F13.7°C 63% 5.8 mph S9.3 kmh S 15.0 mph24.1 kmh 30.09 in1019.0 mb - 0.00 in0.0 mm 0.00 in0.0 mm
11:50 AM 69.8°F21.0°C 55.3°F12.9°C 60% 5.8 mph SW9.3 kmh SW 10.4 mph16.7 kmh 30.09 in1019.0 mb - 0.00 in0.0 mm 0.00 in0.0 mm
12:00 PM 70.3°F21.3°C 58.0°F14.4°C 65% 3.5 mph WSW5.6 kmh WSW 10.4 mph16.7 kmh 30.10 in1019.3 mb - 0.00 in0.0 mm 0.00 in0.0 mm
12:10 PM 69.7°F20.9°C 56.5°F13.6°C 63% 6.9 mph SSW11.1 kmh SSW 11.5 mph18.5 kmh 30.09 in1019.0 mb - 0.00 in0.0 mm 0.00 in0.0 mm
12:20 PM 70.5°F21.4°C 56.4°F13.6°C 61% 4.6 mph W7.4 kmh W 8.1 mph13.0 kmh 30.09 in1019.0 mb - 0.00 in0.0 mm 0.00 in0.0 mm
12:30 PM 71.0°F21.7°C 56.4°F13.6°C 60% 4.6 mph WSW7.4 kmh WSW 10.4 mph16.7 kmh 30.09 in1019.0 mb - 0.00 in0.0 mm 0.00 in0.0 mm
12:40 PM 71.0°F21.7°C 59.5°F15.3°C 67% 4.6 mph W7.4 kmh W 11.5 mph18.5 kmh 30.09 in1019.0 mb - 0.00 in0.0 mm 0.00 in0.0 mm
12:50 PM 71.0°F21.7°C 57.8°F14.3°C 63% 4.6 mph SSW7.4 kmh SSW 8.1 mph13.0 kmh 30.09 in1019.0 mb - 0.00 in0.0 mm 0.00 in0.0 mm
01:00 PM 71.6°F22.0°C 58.8°F14.9°C 64% 3.5 mph WSW5.6 kmh WSW 4.6 mph7.4 kmh 30.09 in1019.0 mb - 0.00 in0.0 mm 0.00 in0.0 mm
01:10 PM 71.3°F21.8°C 58.0°F14.4°C 63% 4.6 mph WSW7.4 kmh WSW 12.7 mph20.4 kmh 30.09 in1019.0 mb - 0.00 in0.0 mm 0.00 in0.0 mm
01:20 PM 71.6°F22.0°C 56.0°F13.3°C 58% 5.8 mph S9.3 kmh S 11.5 mph18.5 kmh 30.09 in1019.0 mb - 0.00 in0.0 mm 0.00 in0.0 mm
01:30 PM 71.5°F21.9°C 54.5°F12.5°C 55% 4.6 mph SW7.4 kmh SW 9.2 mph14.8 kmh 30.09 in1019.0 mb - 0.00 in0.0 mm 0.00 in0.0 mm
01:40 PM 71.7°F22.1°C 54.2°F12.3°C 54% 5.8 mph WSW9.3 kmh WSW 6.9 mph11.1 kmh 30.08 in1018.6 mb - 0.00 in0.0 mm 0.00 in0.0 mm
01:50 PM 72.0°F22.2°C 52.9°F11.6°C 51% 5.8 mph S9.3 kmh S 9.2 mph14.8 kmh 30.09 in1019.0 mb - 0.00 in0.0 mm 0.00 in0.0 mm
02:00 PM 71.9°F22.2°C 52.7°F11.5°C 51% 4.6 mph SSW7.4 kmh SSW 9.2 mph14.8 kmh 30.09 in1019.0 mb - 0.00 in0.0 mm 0.00 in0.0 mm
02:10 PM 71.7°F22.1°C 52.1°F11.2°C 50% 5.8 mph SW9.3 kmh SW 9.2 mph14.8 kmh 30.09 in1019.0 mb - 0.00 in0.0 mm 0.00 in0.0 mm
02:20 PM 71.9°F22.2°C 53.3°F11.8°C 52% 4.6 mph SW7.4 kmh SW 13.8 mph22.2 kmh 30.08 in1018.6 mb - 0.00 in0.0 mm 0.00 in0.0 mm
02:30 PM 71.4°F21.9°C 50.7°F10.4°C 48% 8.1 mph SW13.0 kmh SW 13.8 mph22.2 kmh 30.08 in1018.6 mb - 0.00 in0.0 mm 0.00 in0.0 mm
02:40 PM 71.8°F22.1°C 51.0°F10.6°C 48% 4.6 mph W7.4 kmh W 8.1 mph13.0 kmh 30.08 in1018.6 mb - 0.00 in0.0 mm 0.00 in0.0 mm
02:50 PM 72.1°F22.3°C 50.8°F10.4°C 47% 5.8 mph WSW9.3 kmh WSW 11.5 mph18.5 kmh 30.08 in1018.6 mb - 0.00 in0.0 mm 0.00 in0.0 mm
03:00 PM 72.4°F22.4°C 51.0°F10.6°C 47% 4.6 mph S7.4 kmh S 11.5 mph18.5 kmh 30.08 in1018.6 mb - 0.00 in0.0 mm 0.00 in0.0 mm
03:10 PM 71.8°F22.1°C 49.3°F9.6°C 45% 6.9 mph S11.1 kmh S 12.7 mph20.4 kmh 30.08 in1018.6 mb - 0.00 in0.0 mm 0.00 in0.0 mm
03:20 PM 71.6°F22.0°C 49.7°F9.8°C 46% 4.6 mph S7.4 kmh S 11.5 mph18.5 kmh 30.07 in1018.3 mb - 0.00 in0.0 mm 0.00 in0.0 mm
03:30 PM 72.6°F22.6°C 50.6°F10.3°C 46% 3.5 mph SW5.6 kmh SW 8.1 mph13.0 kmh 30.07 in1018.3 mb - 0.00 in0.0 mm 0.00 in0.0 mm
03:40 PM 72.9°F22.7°C 50.3°F10.2°C 45% 4.6 mph SW7.4 kmh SW 11.5 mph18.5 kmh 30.07 in1018.3 mb - 0.00 in0.0 mm 0.00 in0.0 mm
03:50 PM 72.6°F22.6°C 52.3°F11.3°C 49% 2.3 mph S3.7 kmh S 5.8 mph9.3 kmh 30.06 in1017.9 mb - 0.00 in0.0 mm 0.00 in0.0 mm
04:00 PM 73.1°F22.8°C 51.7°F10.9°C 47% 3.5 mph WSW5.6 kmh WSW 8.1 mph13.0 kmh 30.05 in1017.6 mb - 0.00 in0.0 mm 0.00 in0.0 mm
04:10 PM 73.1°F22.8°C 51.1°F10.6°C 46% 3.5 mph W5.6 kmh W 9.2 mph14.8 kmh 30.05 in1017.6 mb - 0.00 in0.0 mm 0.00 in0.0 mm
04:20 PM 72.2°F22.3°C 50.8°F10.4°C 47% 3.5 mph SSW5.6 kmh SSW 10.4 mph16.7 kmh 30.05 in1017.6 mb - 0.00 in0.0 mm 0.00 in0.0 mm
04:30 PM 71.8°F22.1°C 51.1°F10.6°C 48% 3.5 mph SSW5.6 kmh SSW 5.8 mph9.3 kmh 30.05 in1017.6 mb - 0.00 in0.0 mm 0.00 in0.0 mm
04:40 PM 71.3°F21.8°C 50.0°F10.0°C 47% 4.6 mph WSW7.4 kmh WSW 5.8 mph9.3 kmh 30.05 in1017.6 mb - 0.00 in0.0 mm 0.00 in0.0 mm
04:50 PM 71.1°F21.7°C 50.9°F10.5°C 49% 3.5 mph SW5.6 kmh SW 9.2 mph14.8 kmh 30.04 in1017.3 mb - 0.00 in0.0 mm 0.00 in0.0 mm
05:00 PM 71.1°F21.7°C 50.9°F10.5°C 49% 5.8 mph WSW9.3 kmh WSW 6.9 mph11.1 kmh 30.05 in1017.6 mb - 0.00 in0.0 mm 0.00 in0.0 mm
05:10 PM 71.1°F21.7°C 52.6°F11.4°C 52% 3.5 mph S5.6 kmh S 5.8 mph9.3 kmh 30.05 in1017.6 mb - 0.00 in0.0 mm 0.00 in0.0 mm
05:20 PM 70.7°F21.5°C 53.2°F11.8°C 54% 3.5 mph SW5.6 kmh SW 9.2 mph14.8 kmh 30.05 in1017.6 mb - 0.00 in0.0 mm 0.00 in0.0 mm
05:30 PM 70.5°F21.4°C 53.6°F12.0°C 55% 3.5 mph S5.6 kmh S 3.5 mph5.6 kmh 30.04 in1017.3 mb - 0.00 in0.0 mm 0.00 in0.0 mm
05:40 PM 70.0°F21.1°C 53.6°F12.0°C 56% 2.3 mph SSE3.7 kmh SSE 5.8 mph9.3 kmh 30.04 in1017.3 mb - 0.00 in0.0 mm 0.00 in0.0 mm
05:50 PM 69.8°F21.0°C 52.4°F11.3°C 54% 2.3 mph S3.7 kmh S 6.9 mph11.1 kmh 30.03 in1016.9 mb - 0.00 in0.0 mm 0.00 in0.0 mm
06:00 PM 69.6°F20.9°C 53.2°F11.8°C 56% 3.5 mph S5.6 kmh S 6.9 mph11.1 kmh 30.03 in1016.9 mb - 0.00 in0.0 mm 0.00 in0.0 mm
06:10 PM 69.8°F21.0°C 52.9°F11.6°C 55% 3.5 mph WSW5.6 kmh WSW 5.8 mph9.3 kmh 30.03 in1016.9 mb - 0.00 in0.0 mm 0.00 in0.0 mm
06:20 PM 70.4°F21.3°C 53.5°F11.9°C 55% 2.3 mph WSW3.7 kmh WSW 3.5 mph5.6 kmh 30.03 in1016.9 mb - 0.00 in0.0 mm 0.00 in0.0 mm
06:30 PM 70.2°F21.2°C 51.7°F10.9°C 52% 3.5 mph WSW5.6 kmh WSW 8.1 mph13.0 kmh 30.02 in1016.6 mb - 0.00 in0.0 mm 0.00 in0.0 mm
06:40 PM 70.0°F21.1°C 52.6°F11.4°C 54% 2.3 mph S3.7 kmh S 3.5 mph5.6 kmh 30.02 in1016.6 mb - 0.00 in0.0 mm 0.00 in0.0 mm
06:50 PM 70.2°F21.2°C 52.8°F11.6°C 54% 2.3 mph S3.7 kmh S 8.1 mph13.0 kmh 30.02 in1016.6 mb - 0.00 in0.0 mm 0.00 in0.0 mm
07:00 PM 69.8°F21.0°C 52.4°F11.3°C 54% 2.3 mph SW3.7 kmh SW 3.5 mph5.6 kmh 30.01 in1016.3 mb - 0.00 in0.0 mm 0.00 in0.0 mm
07:10 PM 69.2°F20.7°C 51.8°F11.0°C 54% 2.3 mph SW3.7 kmh SW 3.5 mph5.6 kmh 30.02 in1016.6 mb - 0.00 in0.0 mm 0.00 in0.0 mm
07:20 PM 68.8°F20.4°C 51.4°F10.8°C 54% 2.3 mph S3.7 kmh S 4.6 mph7.4 kmh 30.01 in1016.3 mb - 0.00 in0.0 mm 0.00 in0.0 mm
07:30 PM 68.5°F20.3°C 51.7°F10.9°C 55% 1.2 mph S1.9 kmh S 3.5 mph5.6 kmh 30.01 in1016.3 mb - 0.00 in0.0 mm 0.00 in0.0 mm
07:40 PM 68.3°F20.2°C 51.5°F10.8°C 55% 1.2 mph S1.9 kmh S 3.5 mph5.6 kmh 30.01 in1016.3 mb - 0.00 in0.0 mm 0.00 in0.0 mm
07:50 PM 68.1°F20.1°C 52.3°F11.3°C 57% Calm Calm -- 30.00 in1015.9 mb - 0.00 in0.0 mm 0.00 in0.0 mm
08:00 PM 67.8°F19.9°C 52.0°F11.1°C 57% 1.2 mph S1.9 kmh S 3.5 mph5.6 kmh 30.00 in1015.9 mb - 0.00 in0.0 mm 0.00 in0.0 mm
08:10 PM 67.6°F19.8°C 50.9°F10.5°C 55% 1.2 mph S1.9 kmh S 2.3 mph3.7 kmh 30.00 in1015.9 mb - 0.00 in0.0 mm 0.00 in0.0 mm
08:20 PM 67.4°F19.7°C 51.6°F10.9°C 57% Calm Calm -- 30.00 in1015.9 mb - 0.00 in0.0 mm 0.00 in0.0 mm
08:30 PM 67.1°F19.5°C 50.9°F10.5°C 56% Calm Calm 1.2 mph1.9 kmh 30.00 in1015.9 mb - 0.00 in0.0 mm 0.00 in0.0 mm
08:40 PM 66.9°F19.4°C 50.7°F10.4°C 56% Calm Calm 1.2 mph1.9 kmh 30.00 in1015.9 mb - 0.00 in0.0 mm 0.00 in0.0 mm
08:50 PM 66.5°F19.2°C 51.3°F10.7°C 58% Calm Calm -- 30.00 in1015.9 mb - 0.00 in0.0 mm 0.00 in0.0 mm
09:00 PM 66.1°F18.9°C 51.4°F10.8°C 59% Calm Calm -- 29.99 in1015.6 mb - 0.00 in0.0 mm 0.00 in0.0 mm
09:10 PM 65.6°F18.7°C 51.3°F10.7°C 60% Calm Calm -- 29.99 in1015.6 mb - 0.00 in0.0 mm 0.00 in0.0 mm
09:20 PM 65.0°F18.3°C 50.8°F10.4°C 60% Calm Calm -- 29.99 in1015.6 mb - 0.00 in0.0 mm 0.00 in0.0 mm
09:30 PM 64.5°F18.1°C 51.2°F10.7°C 62% Calm Calm -- 29.99 in1015.6 mb - 0.00 in0.0 mm 0.00 in0.0 mm
09:40 PM 64.2°F17.9°C 51.3°F10.7°C 63% Calm Calm -- 30.00 in1015.9 mb - 0.00 in0.0 mm 0.00 in0.0 mm
09:50 PM 64.0°F17.8°C 51.2°F10.7°C 63% Calm Calm -- 30.00 in1015.9 mb - 0.00 in0.0 mm 0.00 in0.0 mm
10:00 PM 63.7°F17.6°C 51.3°F10.7°C 64% Calm Calm -- 30.00 in1015.9 mb - 0.00 in0.0 mm 0.00 in0.0 mm
10:10 PM 63.4°F17.4°C 51.9°F11.1°C 66% Calm Calm -- 29.99 in1015.6 mb - 0.00 in0.0 mm 0.00 in0.0 mm
10:20 PM 63.2°F17.3°C 51.6°F10.9°C 66% Calm Calm -- 29.99 in1015.6 mb - 0.00 in0.0 mm 0.00 in0.0 mm
10:30 PM 63.1°F17.3°C 52.0°F11.1°C 67% Calm Calm -- 30.00 in1015.9 mb - 0.00 in0.0 mm 0.00 in0.0 mm
10:40 PM 63.0°F17.2°C 52.3°F11.3°C 68% Calm Calm -- 30.00 in1015.9 mb - 0.00 in0.0 mm 0.00 in0.0 mm
10:50 PM 62.9°F17.2°C 52.6°F11.4°C 69% Calm Calm -- 30.00 in1015.9 mb - 0.00 in0.0 mm 0.00 in0.0 mm
11:00 PM 62.6°F17.0°C 52.7°F11.5°C 70% Calm Calm -- 30.00 in1015.9 mb - 0.00 in0.0 mm 0.00 in0.0 mm
11:10 PM 62.3°F16.8°C 52.8°F11.6°C 71% Calm Calm -- 30.00 in1015.9 mb - 0.00 in0.0 mm 0.00 in0.0 mm
11:20 PM 62.1°F16.7°C 53.0°F11.7°C 72% Calm Calm -- 30.00 in1015.9 mb - 0.00 in0.0 mm 0.00 in0.0 mm
11:30 PM 62.0°F16.7°C 52.9°F11.6°C 72% Calm Calm -- 30.00 in1015.9 mb - 0.00 in0.0 mm 0.00 in0.0 mm
11:40 PM 62.0°F16.7°C 52.9°F11.6°C 72% Calm Calm -- 30.00 in1015.9 mb - 0.00 in0.0 mm 0.00 in0.0 mm
11:50 PM 62.1°F16.7°C 53.0°F11.7°C 72% Calm Calm -- 30.00 in1015.9 mb - 0.00 in0.0 mm 0.00 in0.0 mm